Terminal Aerodrome Forecast
Issued by NWS

Home | Current Version | Previous Version | Text Only | Print | Product List | Glossary On
Versions: 1 2 3 4 5 6 7 8 9 10 11 12 13 14 15 16 17 18 19 20
075
FTUS41 KPBZ 102341
TAFBVI
TAF
KBVI 102341Z 1100/1124 24010KT 1/2SM SHSN SCT008 OVC015
      TEMPO 1100/1102 2SM -SHSN
     FM110300 27012G20KT 3SM -SHSN OVC012
     FM111200 29010G20KT 6SM -SHSN OVC025
     FM111800 30012G20KT P6SM OVC040=

USA.gov is the U.S. government's official web portal to all federal, state and local government web resources and services.